Time;durP1;ratioP1;P1;durP2;ratioP2;P2;SDS_P1;SDS_P2;PMS_P1;PMS_P2;Temp;Humidity;BMP_temperature;BMP_pressure;BME280_temperature;BME280_humidity;BME280_pressure;Samples;Min_cycle;Max_cycle;Signal;HPM_P1;HPM_P2
2021/04/14 00:02:21;;;;;;;7.22;5.38;;;21.40;30.50;;;;;;4974891;28;20042;-74
2021/04/14 00:04:46;;;;;;;5.72;5.13;;;21.40;30.40;;;;;;4980380;28;20026;-74
2021/04/14 00:07:13;;;;;;;8.88;5.55;;;21.30;30.40;;;;;;4978965;28;20039;-74
2021/04/14 00:09:39;;;;;;;10.90;5.97;;;21.30;30.30;;;;;;4977145;28;20076;-74
2021/04/14 00:12:05;;;;;;;10.88;5.68;;;21.30;30.40;;;;;;4992843;28;20502;-75
2021/04/14 00:14:30;;;;;;;6.68;5.20;;;21.30;30.30;;;;;;4976335;28;20041;-75
2021/04/14 00:16:56;;;;;;;8.93;5.50;;;21.30;30.30;;;;;;4972374;28;20030;-75
2021/04/14 00:19:23;;;;;;;9.15;6.03;;;21.30;30.30;;;;;;4980890;28;20041;-74
2021/04/14 00:21:49;;;;;;;7.45;5.38;;;21.30;30.30;;;;;;4973738;28;20082;-74
2021/04/14 00:24:16;;;;;;;6.68;5.90;;;21.30;30.40;;;;;;4975804;28;20501;-74
2021/04/14 00:26:42;;;;;;;9.35;5.97;;;21.30;30.30;;;;;;4976328;28;20058;-79
2021/04/14 00:29:07;;;;;;;8.07;5.63;;;21.30;30.40;;;;;;4996304;28;20116;-79
2021/04/14 00:31:36;;;;;;;8.75;5.97;;;21.20;30.30;;;;;;4973369;28;20041;-79
2021/04/14 00:34:21;;;;;;;7.82;5.93;;;21.30;30.40;;;;;;4975975;28;20027;-80
2021/04/14 00:36:53;;;;;;;7.75;5.47;;;21.20;30.30;;;;;;4976411;28;20517;-78
2021/04/14 00:39:21;;;;;;;7.15;5.80;;;21.20;30.30;;;;;;4980604;28;20030;-80
2021/04/14 00:41:47;;;;;;;9.10;5.70;;;21.20;30.40;;;;;;4981328;28;20054;-78
2021/04/14 00:44:12;;;;;;;7.80;5.90;;;21.20;30.40;;;;;;4962748;28;20050;-76
2021/04/14 00:46:38;;;;;;;7.45;5.80;;;21.20;30.40;;;;;;4974180;28;20038;-77
2021/04/14 00:49:04;;;;;;;10.40;6.20;;;21.10;30.40;;;;;;4977253;28;20022;-77
2021/04/14 00:51:31;;;;;;;11.20;6.50;;;21.10;30.50;;;;;;4956483;28;20043;-78
2021/04/14 00:53:56;;;;;;;7.82;6.05;;;21.10;30.60;;;;;;4963861;28;20449;-78
2021/04/14 00:56:22;;;;;;;7.47;5.28;;;21.20;30.60;;;;;;4979475;28;20030;-77
2021/04/14 00:58:48;;;;;;;10.05;5.90;;;21.10;31.20;;;;;;4982687;28;20501;-76
2021/04/14 01:01:13;;;;;;;7.28;5.57;;;21.00;30.50;;;;;;4981492;28;20042;-78
2021/04/14 01:03:42;;;;;;;7.53;5.88;;;21.10;30.60;;;;;;4978702;28;20522;-76
2021/04/14 01:06:19;;;;;;;8.50;7.03;;;21.10;30.60;;;;;;4974650;28;20069;-76
2021/04/14 01:08:58;;;;;;;13.82;7.05;;;21.00;30.60;;;;;;4962160;28;20029;-78
2021/04/14 01:11:24;;;;;;;9.93;7.00;;;21.00;30.60;;;;;;4985912;28;20109;-78
2021/04/14 01:13:50;;;;;;;9.25;6.68;;;21.00;30.60;;;;;;4960262;28;20040;-78
2021/04/14 01:16:15;;;;;;;10.38;6.90;;;21.00;30.70;;;;;;4959277;28;20133;-75
2021/04/14 01:18:41;;;;;;;8.57;6.15;;;21.00;30.70;;;;;;4994583;28;20034;-75
2021/04/14 01:21:37;;;;;;;10.10;6.53;;;20.90;30.60;;;;;;4968311;28;20084;-75
2021/04/14 01:24:11;;;;;;;8.95;6.00;;;20.90;30.70;;;;;;4967351;28;20042;-75
2021/04/14 01:26:36;;;;;;;12.30;6.55;;;20.90;30.70;;;;;;4967446;28;20034;-75
2021/04/14 01:29:03;;;;;;;9.73;5.95;;;20.90;31.30;;;;;;5006460;28;20125;-75
2021/04/14 01:31:34;;;;;;;8.88;6.35;;;20.90;30.70;;;;;;4976166;28;20034;-74
2021/04/14 01:34:01;;;;;;;7.68;5.93;;;20.90;30.70;;;;;;4976364;28;20026;-74
2021/04/14 01:36:27;;;;;;;6.85;5.60;;;20.90;30.70;;;;;;4987311;28;20093;-75
2021/04/14 01:39:06;;;;;;;9.15;6.43;;;20.80;30.60;;;;;;4978089;28;21517;-74
2021/04/14 01:41:31;;;;;;;15.82;6.28;;;20.80;30.70;;;;;;4998395;28;20026;-74
2021/04/14 01:43:57;;;;;;;12.13;6.75;;;20.80;30.70;;;;;;4974712;28;20557;-75
2021/04/14 01:46:23;;;;;;;8.52;6.03;;;20.80;31.30;;;;;;4992289;28;20042;-74
2021/04/14 01:48:48;;;;;;;11.13;7.53;;;20.80;30.60;;;;;;4994654;28;20035;-74
2021/04/14 01:51:14;;;;;;;11.32;6.88;;;20.80;30.60;;;;;;4970682;28;20026;-75
2021/04/14 01:53:40;;;;;;;10.45;7.72;;;20.80;30.60;;;;;;4980686;28;20045;-74
2021/04/14 01:56:06;;;;;;;10.57;6.95;;;20.80;30.50;;;;;;4994724;28;20513;-74
2021/04/14 01:58:32;;;;;;;9.50;7.20;;;20.80;30.50;;;;;;4987352;28;20122;-74
2021/04/14 02:01:00;;;;;;;9.23;6.65;;;20.80;30.50;;;;;;4996336;28;20530;-74
2021/04/14 02:03:28;;;;;;;8.95;7.22;;;20.80;30.40;;;;;;4983012;28;20513;-74
2021/04/14 02:05:54;;;;;;;6.22;5.60;;;20.80;30.40;;;;;;4980186;28;20113;-74
2021/04/14 02:08:20;;;;;;;8.02;5.78;;;20.80;31.10;;;;;;4998844;28;20110;-74
2021/04/14 02:10:52;;;;;;;8.80;6.00;;;20.80;30.40;;;;;;4991755;28;20084;-74
2021/04/14 02:13:29;;;;;;;8.18;6.63;;;20.80;30.40;;;;;;4987602;28;20097;-75
2021/04/14 02:15:54;;;;;;;8.32;5.82;;;20.80;30.40;;;;;;4964888;28;20121;-75
2021/04/14 02:18:20;;;;;;;9.98;7.15;;;20.80;30.40;;;;;;4987496;28;20110;-74
2021/04/14 02:20:46;;;;;;;12.73;8.23;;;20.80;30.40;;;;;;4962650;28;20041;-74
2021/04/14 02:23:22;;;;;;;12.55;8.70;;;20.80;30.40;;;;;;4994189;28;20375;-73
2021/04/14 02:25:47;;;;;;;;;;;20.80;30.40;;;;;;4975343;28;20030;-74
2021/04/14 02:28:22;;;;;;;13.07;9.48;;;20.80;30.40;;;;;;4980705;28;19917;-74
2021/04/14 02:30:48;;;;;;;13.90;9.77;;;20.80;30.40;;;;;;4973266;28;20031;-74
2021/04/14 02:33:14;;;;;;;10.60;7.97;;;20.80;30.50;;;;;;4977252;28;20050;-74
2021/04/14 02:35:55;;;;;;;12.02;8.55;;;20.70;30.50;;;;;;4962271;28;20524;-74
2021/04/14 02:38:21;;;;;;;10.38;7.10;;;20.70;30.40;;;;;;4992163;28;20026;-77
2021/04/14 02:40:47;;;;;;;9.98;6.80;;;20.70;31.10;;;;;;4964941;28;20047;-76
2021/04/14 02:43:13;;;;;;;10.52;7.43;;;20.70;30.50;;;;;;4983921;28;20057;-74
2021/04/14 02:45:41;;;;;;;7.80;6.55;;;20.70;31.20;;;;;;4981150;28;20113;-74
2021/04/14 02:48:08;;;;;;;10.93;8.32;;;20.70;30.50;;;;;;4998752;28;20134;-77
2021/04/14 02:50:34;;;;;;;9.93;7.07;;;20.70;30.50;;;;;;4974803;28;20117;-76
2021/04/14 02:53:03;;;;;;;11.90;7.68;;;20.70;30.40;;;;;;4963086;28;20177;-76
2021/04/14 02:55:29;;;;;;;10.35;8.02;;;20.70;31.10;;;;;;4998560;28;20034;-76
2021/04/14 02:57:55;;;;;;;10.77;7.43;;;20.60;30.40;;;;;;4995811;28;20027;-76
2021/04/14 03:00:21;;;;;;;10.00;8.02;;;20.60;30.40;;;;;;4988213;28;20022;-76
2021/04/14 03:02:47;;;;;;;11.30;7.63;;;20.60;30.50;;;;;;4960483;28;20422;-76
2021/04/14 03:05:14;;;;;;;7.63;5.88;;;20.60;30.50;;;;;;4985772;28;20035;-77
2021/04/14 03:07:42;;;;;;;8.20;7.18;;;20.60;30.50;;;;;;4975740;28;20096;-77
2021/04/14 03:10:09;;;;;;;7.00;5.70;;;20.60;30.40;;;;;;4977776;28;20074;-74
2021/04/14 03:12:34;;;;;;;9.45;7.43;;;20.60;30.50;;;;;;4984860;28;20026;-75
2021/04/14 03:15:00;;;;;;;10.57;6.95;;;20.60;30.50;;;;;;4980091;28;20029;-74
2021/04/14 03:17:26;;;;;;;7.03;5.90;;;20.60;30.50;;;;;;4984985;28;20096;-73
2021/04/14 03:19:52;;;;;;;12.23;7.82;;;20.50;30.50;;;;;;4955124;28;20527;-74
2021/04/14 03:22:23;;;;;;;12.18;7.03;;;20.60;30.50;;;;;;4997067;28;20051;-74
2021/04/14 03:24:49;;;;;;;13.40;7.63;;;20.50;30.40;;;;;;4980344;28;20061;-75
2021/04/14 03:27:14;;;;;;;11.38;7.97;;;20.50;30.50;;;;;;4986294;28;20549;-75
2021/04/14 03:29:40;;;;;;;10.82;7.63;;;20.50;30.50;;;;;;4978007;28;20092;-74
2021/04/14 03:32:06;;;;;;;9.35;6.57;;;20.50;30.50;;;;;;4990321;28;20105;-75
2021/04/14 03:34:37;;;;;;;9.93;6.63;;;20.50;30.60;;;;;;4998597;28;20084;-74
2021/04/14 03:37:03;;;;;;;8.57;6.57;;;20.50;30.50;;;;;;4977221;28;20566;-76
2021/04/14 03:39:32;;;;;;;10.45;7.53;;;20.50;30.50;;;;;;4978650;28;20121;-74
2021/04/14 03:41:57;;;;;;;12.02;7.68;;;20.50;30.50;;;;;;4999174;28;20076;-75
2021/04/14 03:44:24;;;;;;;8.20;6.90;;;20.50;30.60;;;;;;4976758;28;20046;-74
2021/04/14 03:46:49;;;;;;;6.43;5.80;;;20.50;30.50;;;;;;5008852;28;20050;-74
2021/04/14 03:49:15;;;;;;;7.65;6.43;;;20.50;30.50;;;;;;4972145;28;20053;-74
2021/04/14 03:51:40;;;;;;;8.45;5.38;;;20.60;30.40;;;;;;4998023;28;20023;-74
2021/04/14 03:54:06;;;;;;;7.78;6.00;;;20.50;30.40;;;;;;5012139;28;20042;-79
2021/04/14 03:56:32;;;;;;;6.47;5.80;;;20.50;30.40;;;;;;4973317;28;20130;-77
2021/04/14 03:58:57;;;;;;;7.10;4.63;;;20.50;30.50;;;;;;4976032;28;20027;-76
2021/04/14 04:01:30;;;;;;;1.65;0.55;;;20.50;30.50;;;;;;4976418;28;20095;-76
2021/04/14 04:03:56;;;;;;;1.15;0.85;;;20.50;30.50;;;;;;4982608;28;20026;-76
2021/04/14 04:06:22;;;;;;;6.68;5.72;;;20.50;30.40;;;;;;4966703;28;20560;-76
2021/04/14 04:08:48;;;;;;;0.50;0.50;;;20.50;30.40;;;;;;4980716;28;20042;-76
2021/04/14 04:11:14;;;;;;;8.90;7.70;;;20.50;30.30;;;;;;4988420;28;20490;-77
2021/04/14 04:13:40;;;;;;;7.25;5.53;;;20.50;30.30;;;;;;4999716;28;20501;-78
2021/04/14 04:16:05;;;;;;;1.27;0.85;;;20.50;30.30;;;;;;4985096;28;20030;-78
2021/04/14 04:18:31;;;;;;;9.60;6.20;;;20.50;30.20;;;;;;4987883;28;20549;-79
2021/04/14 04:20:57;;;;;;;0.30;0.30;;;20.50;30.30;;;;;;4979989;28;20542;-78
2021/04/14 04:23:23;;;;;;;0.43;0.38;;;20.50;30.40;;;;;;4991319;28;20085;-78
2021/04/14 04:25:49;;;;;;;8.60;6.30;;;20.50;30.30;;;;;;4979013;28;20053;-74
2021/04/14 04:28:14;;;;;;;0.82;0.35;;;20.50;31.00;;;;;;4982492;28;20491;-74
2021/04/14 04:30:40;;;;;;;5.88;4.93;;;20.50;30.20;;;;;;4990515;28;20482;-74
2021/04/14 04:33:06;;;;;;;7.68;6.10;;;20.50;30.30;;;;;;4998570;28;20026;-75
2021/04/14 04:35:32;;;;;;;0.43;0.43;;;20.40;30.30;;;;;;4960635;28;20035;-74
2021/04/14 04:37:58;;;;;;;9.65;7.00;;;20.40;30.20;;;;;;4971982;28;20049;-75
2021/04/14 04:40:24;;;;;;;0.13;0.13;;;20.40;30.20;;;;;;4969077;28;20505;-73
2021/04/14 04:42:49;;;;;;;0.32;0.30;;;20.40;30.30;;;;;;4972378;28;20121;-74
2021/04/14 04:45:16;;;;;;;7.47;5.40;;;20.40;30.20;;;;;;4972727;28;20046;-74
2021/04/14 04:47:42;;;;;;;3.83;1.15;;;20.40;30.30;;;;;;4995496;28;20022;-74
2021/04/14 04:50:08;;;;;;;0.30;0.30;;;20.40;30.30;;;;;;4976345;28;20092;-74
2021/04/14 04:52:34;;;;;;;5.80;5.25;;;20.40;30.30;;;;;;5006589;28;20040;-75
2021/04/14 04:54:59;;;;;;;0.43;0.43;;;20.40;30.40;;;;;;5005766;28;20038;-75
2021/04/14 04:57:25;;;;;;;7.25;3.80;;;20.40;30.30;;;;;;4978161;28;20073;-75
2021/04/14 04:59:50;;;;;;;5.72;5.10;;;20.40;30.40;;;;;;4983288;28;20554;-75
2021/04/14 05:02:16;;;;;;;0.85;0.50;;;20.40;30.40;;;;;;4993387;28;20085;-75
2021/04/14 05:04:41;;;;;;;0.70;0.57;;;20.30;30.90;;;;;;4970177;28;20105;-74
2021/04/14 05:07:07;;;;;;;6.38;5.15;;;20.30;30.40;;;;;;5004716;28;20030;-75
2021/04/14 05:09:33;;;;;;;0.80;0.40;;;20.30;30.50;;;;;;4977300;28;20038;-75
2021/04/14 05:11:58;;;;;;;10.93;8.57;;;20.30;30.60;;;;;;4975346;28;20114;-74
2021/04/14 05:14:24;;;;;;;10.07;5.95;;;20.30;30.60;;;;;;4975814;28;20035;-74
2021/04/14 05:16:49;;;;;;;2.75;1.15;;;20.40;30.90;;;;;;4967546;28;20050;-74
2021/04/14 05:19:15;;;;;;;8.23;6.70;;;20.40;30.80;;;;;;4994967;28;20074;-75
2021/04/14 05:21:41;;;;;;;2.15;0.52;;;20.40;30.90;;;;;;4988334;28;20113;-75
2021/04/14 05:24:10;;;;;;;1.33;0.75;;;20.50;30.90;;;;;;4988404;28;20054;-73
2021/04/14 05:26:36;;;;;;;8.27;6.22;;;20.50;30.80;;;;;;4994522;28;20050;-75
2021/04/14 05:29:02;;;;;;;0.28;0.28;;;20.50;30.80;;;;;;4982122;28;20034;-74
2021/04/14 05:31:29;;;;;;;0.30;0.22;;;20.60;30.60;;;;;;5007215;28;20475;-74
2021/04/14 05:33:58;;;;;;;6.07;5.43;;;20.70;30.50;;;;;;5006516;28;20410;-72
2021/04/14 05:36:24;;;;;;;0.90;0.50;;;20.80;30.40;;;;;;4992229;28;20033;-72
2021/04/14 05:38:50;;;;;;;0.55;0.55;;;21.00;30.30;;;;;;4983694;28;20022;-79
2021/04/14 05:41:16;;;;;;;1.23;1.02;;;21.00;30.00;;;;;;4987870;28;20086;-79
2021/04/14 05:43:41;;;;;;;6.00;5.30;;;21.10;30.00;;;;;;4989735;28;20050;-79
2021/04/14 05:46:09;;;;;;;0.25;0.25;;;21.20;30.00;;;;;;4992680;28;20035;-79
2021/04/14 05:48:39;;;;;;;1.80;0.30;;;21.30;30.00;;;;;;4993945;28;20121;-80
2021/04/14 05:51:30;;;;;;;0.75;0.75;;;21.30;29.90;;;;;;4973813;28;20022;-80
2021/04/14 05:53:56;;;;;;;6.60;5.95;;;21.40;29.90;;;;;;4986388;28;20045;-80
2021/04/14 05:56:21;;;;;;;0.60;0.57;;;21.50;29.90;;;;;;4981989;28;20475;-80
2021/04/14 05:58:47;;;;;;;0.75;0.55;;;21.50;29.80;;;;;;4964989;28;20108;-79
2021/04/14 06:01:17;;;;;;;0.20;0.20;;;21.50;29.70;;;;;;4971667;28;20038;-79
2021/04/14 06:03:43;;;;;;;0.38;0.35;;;21.60;29.70;;;;;;4970909;28;20034;-80
2021/04/14 06:06:09;;;;;;;0.80;0.73;;;21.60;30.10;;;;;;5001538;28;20026;-80
2021/04/14 06:08:34;;;;;;;1.35;0.80;;;21.70;29.70;;;;;;4977477;28;20402;-80
2021/04/14 06:11:00;;;;;;;0.63;0.55;;;21.70;29.70;;;;;;4976659;28;20030;-80
2021/04/14 06:13:26;;;;;;;1.40;0.75;;;21.70;29.60;;;;;;4975321;28;20037;-79
2021/04/14 06:15:52;;;;;;;0.40;0.25;;;21.80;29.60;;;;;;4957126;28;20038;-79
2021/04/14 06:18:18;;;;;;;0.85;0.60;;;21.80;29.60;;;;;;4978760;28;20096;-79
2021/04/14 06:20:43;;;;;;;0.38;0.38;;;21.80;29.70;;;;;;4990600;28;20018;-81
2021/04/14 06:23:11;;;;;;;3.25;1.13;;;21.80;29.70;;;;;;4989456;28;20085;-80
2021/04/14 06:25:42;;;;;;;1.65;0.43;;;21.80;29.70;;;;;;4983478;28;20025;-73
2021/04/14 06:28:08;;;;;;;0.70;0.50;;;21.80;29.60;;;;;;4965399;28;20042;-73
2021/04/14 06:30:35;;;;;;;0.40;0.32;;;21.80;29.60;;;;;;4977504;28;20035;-73
2021/04/14 06:33:02;;;;;;;0.95;0.52;;;21.80;29.60;;;;;;4986228;28;20022;-74
2021/04/14 06:35:34;;;;;;;0.65;0.52;;;21.90;29.70;;;;;;4980061;28;20030;-74
2021/04/14 06:38:01;;;;;;;2.05;1.23;;;21.90;29.70;;;;;;4985746;28;20032;-74
2021/04/14 06:43:17;;;;;;;0.57;0.57;;;21.80;29.60;;;;;;4985628;28;20033;-79
2021/04/14 06:45:55;;;;;;;0.60;0.52;;;21.80;29.70;;;;;;4984988;28;20038;-78
2021/04/14 06:48:24;;;;;;;0.85;0.60;;;21.90;29.70;;;;;;5001842;28;20029;-79
2021/04/14 06:50:59;;;;;;;1.90;0.93;;;21.90;29.70;;;;;;4994101;28;20446;-78
2021/04/14 06:53:27;;;;;;;;;;;21.90;29.70;;;;;;4983439;28;20034;-79
2021/04/14 06:56:04;;;;;;;6.45;0.95;;;21.90;29.80;;;;;;5005673;28;19909;-79
2021/04/14 06:58:43;;;;;;;0.13;0.13;;;21.90;29.80;;;;;;4977460;28;20018;-78
2021/04/14 07:01:11;;;;;;;1.65;1.17;;;21.80;30.20;;;;;;4976485;28;20026;-78
2021/04/14 07:03:51;;;;;;;1.10;1.00;;;21.90;29.80;;;;;;4958218;28;20125;-74
2021/04/14 07:06:19;;;;;;;0.80;0.45;;;21.90;29.80;;;;;;4980472;28;20049;-73
2021/04/14 07:08:49;;;;;;;1.10;0.85;;;21.90;29.80;;;;;;4995054;28;20025;-74
2021/04/14 07:11:17;;;;;;;0.57;0.30;;;21.90;29.60;;;;;;4980648;28;20083;-74
2021/04/14 07:13:43;;;;;;;2.80;0.77;;;22.00;29.70;;;;;;4977333;28;20035;-74
2021/04/14 07:16:14;;;;;;;0.73;0.73;;;22.00;29.70;;;;;;4994171;28;20497;-74
2021/04/14 07:19:03;;;;;;;1.45;0.80;;;22.00;29.90;;;;;;4959769;28;20027;-74
2021/04/14 07:21:39;;;;;;;1.65;0.60;;;22.00;30.00;;;;;;4990956;28;20087;-74
2021/04/14 07:24:27;;;;;;;0.65;0.65;;;22.00;30.00;;;;;;4977434;28;20121;-74
2021/04/14 07:26:58;;;;;;;1.42;0.73;;;22.00;30.10;;;;;;4977089;28;20038;-75
2021/04/14 07:29:52;;;;;;;0.57;0.57;;;22.00;30.30;;;;;;4976382;28;20126;-74
2021/04/14 07:32:36;;;;;;;1.08;0.68;;;22.00;30.40;;;;;;4898986;29;20048;-74
2021/04/14 07:35:18;;;;;;;1.02;0.93;;;22.00;30.40;;;;;;4908109;29;20037;-74
2021/04/14 07:38:05;;;;;;;0.43;0.43;;;22.00;30.40;;;;;;4927047;29;20042;-74
2021/04/14 07:40:52;;;;;;;2.38;0.95;;;22.00;30.40;;;;;;4914635;29;20031;-73
2021/04/14 07:43:20;;;;;;;1.27;1.05;;;22.00;30.50;;;;;;4914193;29;20119;-74
2021/04/14 07:45:47;;;;;;;1.88;0.60;;;22.00;30.50;;;;;;4895717;29;20090;-74
2021/04/14 07:48:31;;;;;;;1.58;1.00;;;22.00;30.50;;;;;;4913319;29;20121;-74
2021/04/14 07:50:59;;;;;;;0.55;0.55;;;22.00;30.60;;;;;;4917785;29;20032;-74
2021/04/14 07:53:41;;;;;;;1.35;0.80;;;22.00;30.50;;;;;;4899144;29;20039;-74
2021/04/14 07:56:18;;;;;;;0.63;0.60;;;22.00;30.50;;;;;;4914732;29;20508;-74
2021/04/14 07:58:44;;;;;;;3.80;0.95;;;22.10;30.60;;;;;;4927643;29;20107;-79
2021/04/14 08:01:13;;;;;;;0.80;0.60;;;22.10;30.60;;;;;;4914790;29;20473;-79
2021/04/14 08:03:39;;;;;;;0.20;0.20;;;22.10;30.50;;;;;;4897778;29;20149;-79
2021/04/14 08:06:36;;;;;;;1.95;0.70;;;22.20;30.40;;;;;;4923026;29;20125;-79
2021/04/14 08:09:28;;;;;;;2.30;1.25;;;22.20;30.40;;;;;;4912549;29;20039;-79
2021/04/14 08:11:53;;;;;;;0.40;0.40;;;22.30;30.50;;;;;;4935723;29;20091;-79
2021/04/14 08:14:24;;;;;;;0.73;0.50;;;22.30;30.50;;;;;;4917731;29;20043;-79
2021/04/14 08:16:53;;;;;;;3.88;0.55;;;22.30;30.40;;;;;;4934344;29;20043;-79
2021/04/14 08:19:19;;;;;;;0.70;0.70;;;22.30;30.40;;;;;;4931455;29;20130;-79
2021/04/14 08:22:00;;;;;;;0.90;0.40;;;22.30;30.30;;;;;;4922338;29;20111;-79
2021/04/14 08:24:34;;;;;;;0.73;0.68;;;22.30;30.30;;;;;;4918999;28;20043;-78
2021/04/14 08:27:02;;;;;;;3.50;0.47;;;22.30;30.30;;;;;;4917909;29;20035;-78
2021/04/14 08:29:33;;;;;;;0.55;0.43;;;22.30;30.20;;;;;;4897213;29;20043;-77
2021/04/14 08:31:59;;;;;;;1.00;0.88;;;22.30;30.20;;;;;;4899208;28;20039;-77
2021/04/14 08:34:32;;;;;;;4.72;0.63;;;22.40;30.20;;;;;;4931235;29;20449;-77
2021/04/14 08:37:02;;;;;;;0.68;0.60;;;22.40;30.20;;;;;;4914569;29;20596;-77
2021/04/14 08:39:36;;;;;;;1.45;0.70;;;22.40;30.20;;;;;;4923936;29;20497;-77
2021/04/14 08:42:20;;;;;;;0.88;0.60;;;22.40;30.20;;;;;;4915029;29;20084;-78
2021/04/14 08:44:47;;;;;;;0.75;0.47;;;22.40;30.20;;;;;;4931724;28;20055;-76
2021/04/14 08:47:16;;;;;;;2.03;1.13;;;22.40;30.60;;;;;;4960015;28;20089;-73
2021/04/14 08:49:46;;;;;;;1.48;0.98;;;22.50;30.20;;;;;;4993343;28;20138;-73
2021/04/14 08:52:20;;;;;;;0.35;0.10;;;22.50;30.10;;;;;;4975096;28;20034;-73
2021/04/14 08:54:45;;;;;;;0.85;0.73;;;22.50;30.10;;;;;;4964821;28;20499;-73
2021/04/14 08:57:11;;;;;;;1.17;0.75;;;22.50;30.00;;;;;;4975711;28;20034;-77
2021/04/14 08:59:38;;;;;;;0.47;0.47;;;22.60;30.00;;;;;;4959000;28;20050;-77
2021/04/14 09:02:05;;;;;;;1.48;0.50;;;22.60;30.00;;;;;;4976396;28;20494;-77
2021/04/14 09:04:30;;;;;;;0.20;0.20;;;22.60;30.00;;;;;;4991132;28;20169;-77
2021/04/14 09:06:56;;;;;;;0.40;0.40;;;22.50;30.00;;;;;;4956582;28;20105;-78
2021/04/14 09:09:24;;;;;;;1.02;0.38;;;22.60;30.00;;;;;;4997468;28;20455;-73
2021/04/14 09:12:03;;;;;;;0.20;0.20;;;22.60;30.00;;;;;;4974173;28;20042;-73
2021/04/14 09:14:30;;;;;;;0.20;0.20;;;22.60;30.00;;;;;;4981584;28;20025;-72
2021/04/14 09:17:03;;;;;;;0.30;0.30;;;22.60;30.00;;;;;;4995678;28;20025;-73
2021/04/14 09:19:41;;;;;;;0.38;0.32;;;22.60;30.00;;;;;;4981954;28;20105;-73
2021/04/14 09:22:13;;;;;;;0.80;0.55;;;22.60;30.00;;;;;;4958742;28;20053;-72
2021/04/14 09:24:56;;;;;;;0.32;0.30;;;22.60;30.00;;;;;;4993333;28;20038;-75
2021/04/14 09:27:37;;;;;;;0.08;0.00;;;22.60;29.90;;;;;;4975224;28;20124;-73
2021/04/14 09:30:30;;;;;;;0.30;0.22;;;22.60;29.90;;;;;;4993204;28;20028;-73
2021/04/14 09:33:06;;;;;;;0.35;0.35;;;22.60;29.90;;;;;;4992981;28;20050;-72
2021/04/14 09:35:32;;;;;;;0.40;0.20;;;22.60;29.90;;;;;;4977401;28;20035;-72
2021/04/14 09:38:06;;;;;;;0.50;0.30;;;22.60;29.90;;;;;;4973462;28;20079;-73
2021/04/14 09:40:33;;;;;;;0.25;0.25;;;22.60;29.90;;;;;;4984098;28;20157;-73
2021/04/14 09:43:18;;;;;;;0.20;0.20;;;22.60;29.90;;;;;;4999374;28;20022;-73
2021/04/14 09:45:56;;;;;;;0.60;0.20;;;22.60;29.90;;;;;;4998833;28;20425;-73
2021/04/14 09:48:21;;;;;;;1.20;0.70;;;22.60;29.80;;;;;;5003876;28;20072;-73
2021/04/14 09:50:50;;;;;;;0.88;0.60;;;22.70;30.40;;;;;;4998863;28;20393;-73
2021/04/14 09:53:27;;;;;;;0.30;0.30;;;22.60;29.80;;;;;;4968416;28;20050;-74
2021/04/14 09:56:06;;;;;;;0.32;0.13;;;22.60;29.80;;;;;;4985679;28;20452;-73
2021/04/14 09:58:42;;;;;;;0.30;0.20;;;22.70;29.80;;;;;;4978365;28;20026;-74
2021/04/14 10:01:15;;;;;;;;;;;22.70;29.90;;;;;;4982670;28;20033;-73
2021/04/14 10:03:43;;;;;;;0.15;0.15;;;22.60;29.90;;;;;;4988781;28;19916;-73
2021/04/14 10:06:12;;;;;;;0.10;0.10;;;22.70;29.80;;;;;;5029604;28;20103;-73
2021/04/14 10:08:38;;;;;;;0.63;0.30;;;22.60;29.80;;;;;;4993045;28;20062;-73
2021/04/14 10:11:04;;;;;;;1.30;0.55;;;22.60;29.80;;;;;;4978929;28;20383;-75
2021/04/14 10:13:32;;;;;;;0.80;0.40;;;22.60;29.70;;;;;;4991253;28;20161;-74
2021/04/14 10:15:58;;;;;;;0.10;0.10;;;22.60;29.70;;;;;;4999987;28;20042;-74
2021/04/14 10:18:25;;;;;;;0.10;0.10;;;22.60;29.70;;;;;;4972569;28;20057;-74
2021/04/14 10:20:53;;;;;;;3.20;0.28;;;22.70;29.70;;;;;;5018306;28;20034;-74
2021/04/14 10:23:22;;;;;;;0.00;0.00;;;22.70;29.60;;;;;;4978599;28;20402;-74
2021/04/14 10:25:48;;;;;;;0.50;0.20;;;22.70;29.60;;;;;;4977004;28;20189;-74
2021/04/14 10:28:22;;;;;;;0.17;0.17;;;22.70;29.50;;;;;;4993398;28;20101;-74
2021/04/14 10:31:07;;;;;;;0.30;0.25;;;22.70;29.50;;;;;;4975564;28;20053;-74
2021/04/14 10:33:33;;;;;;;0.10;0.00;;;22.70;29.40;;;;;;4997034;28;20018;-73
2021/04/14 10:36:15;;;;;;;0.03;0.00;;;22.70;29.50;;;;;;4993259;28;20061;-74
2021/04/14 10:38:44;;;;;;;0.13;0.13;;;22.70;29.40;;;;;;4977045;28;20030;-75
2021/04/14 10:41:17;;;;;;;0.05;0.05;;;22.70;29.40;;;;;;4993218;28;20077;-74
2021/04/14 10:43:43;;;;;;;1.65;0.32;;;22.70;29.40;;;;;;4995498;28;20043;-74
2021/04/14 10:46:19;;;;;;;0.00;0.00;;;22.70;29.40;;;;;;5009395;28;20076;-76
2021/04/14 10:48:46;;;;;;;0.30;0.30;;;22.70;29.50;;;;;;4995348;28;20011;-77
2021/04/14 10:51:17;;;;;;;0.38;0.38;;;22.70;29.50;;;;;;4976919;28;20049;-76
2021/04/14 10:53:43;;;;;;;0.10;0.10;;;22.70;29.50;;;;;;5008500;28;20033;-74
2021/04/14 10:56:23;;;;;;;0.73;0.30;;;22.70;29.50;;;;;;4977828;28;20038;-74
2021/04/14 10:58:52;;;;;;;0.40;0.20;;;22.70;29.50;;;;;;5009186;28;20027;-74
2021/04/14 11:01:19;;;;;;;0.10;0.10;;;22.70;29.50;;;;;;4993186;28;20043;-74
2021/04/14 11:04:10;;;;;;;0.00;0.00;;;22.70;29.50;;;;;;4976629;28;20039;-75
2021/04/14 11:06:36;;;;;;;0.47;0.10;;;22.70;29.40;;;;;;4961058;28;20057;-75
2021/04/14 11:09:02;;;;;;;0.68;0.10;;;22.70;29.40;;;;;;4993725;28;20027;-75
2021/04/14 11:11:28;;;;;;;0.65;0.20;;;22.70;29.40;;;;;;4977155;28;20038;-74
2021/04/14 11:14:05;;;;;;;0.10;0.10;;;22.70;29.40;;;;;;4992619;28;20046;-74
2021/04/14 11:16:32;;;;;;;0.90;0.50;;;22.70;29.40;;;;;;4994993;28;20030;-75
2021/04/14 11:18:57;;;;;;;0.00;0.00;;;22.70;29.40;;;;;;5009808;28;20101;-74
2021/04/14 11:21:29;;;;;;;0.17;0.17;;;22.70;29.30;;;;;;4994441;28;20109;-74
2021/04/14 11:24:16;;;;;;;0.10;0.10;;;22.70;29.40;;;;;;4976685;28;20030;-75
2021/04/14 11:26:49;;;;;;;0.98;0.38;;;22.70;29.40;;;;;;4995063;28;20033;-75
2021/04/14 11:29:32;;;;;;;0.88;0.20;;;22.70;29.40;;;;;;4994573;28;20045;-74
2021/04/14 11:31:59;;;;;;;0.38;0.20;;;22.70;29.40;;;;;;4992172;28;20030;-75
2021/04/14 11:34:29;;;;;;;0.55;0.47;;;22.70;29.40;;;;;;4961441;28;20036;-74
2021/04/14 11:36:56;;;;;;;0.10;0.10;;;22.70;29.30;;;;;;4977746;28;20057;-75
2021/04/14 11:39:22;;;;;;;0.65;0.10;;;22.70;29.30;;;;;;4977625;28;20113;-75
2021/04/14 11:42:03;;;;;;;3.63;0.40;;;22.80;29.30;;;;;;4989287;28;20120;-75
2021/04/14 11:44:55;;;;;;;0.85;0.40;;;22.80;29.30;;;;;;4992794;28;20048;-74
2021/04/14 11:47:27;;;;;;;0.17;0.17;;;22.80;29.20;;;;;;4977744;28;20060;-75
2021/04/14 11:49:53;;;;;;;0.30;0.13;;;22.80;29.20;;;;;;4994664;28;20026;-75
2021/04/14 11:52:28;;;;;;;0.43;0.10;;;22.90;29.20;;;;;;4977128;28;20517;-74
2021/04/14 11:54:54;;;;;;;0.38;0.30;;;22.90;29.10;;;;;;5001265;28;20033;-74
2021/04/14 11:57:32;;;;;;;0.20;0.08;;;22.90;29.10;;;;;;4977260;28;20034;-75
2021/04/14 12:00:10;;;;;;;0.22;0.22;;;23.00;29.10;;;;;;4979326;28;20041;-74
2021/04/14 12:02:37;;;;;;;3.55;0.88;;;23.00;29.00;;;;;;4979905;28;20177;-76
2021/04/14 12:05:05;;;;;;;0.00;0.00;;;23.00;28.90;;;;;;4976218;28;20030;-76
2021/04/14 12:07:30;;;;;;;1.85;0.10;;;23.00;28.60;;;;;;4960282;28;20406;-76
2021/04/14 12:10:06;;;;;;;0.00;0.00;;;23.10;28.70;;;;;;4960528;28;20022;-77
2021/04/14 12:12:32;;;;;;;0.20;0.20;;;23.20;28.70;;;;;;4977045;28;20031;-77
2021/04/14 12:14:58;;;;;;;8.50;1.25;;;23.20;28.70;;;;;;4974870;28;20045;-77
2021/04/14 12:17:24;;;;;;;0.10;0.10;;;23.20;28.60;;;;;;4998233;28;20495;-77
2021/04/14 12:19:49;;;;;;;0.10;0.10;;;23.30;28.60;;;;;;4985374;28;20089;-77
2021/04/14 12:22:16;;;;;;;0.10;0.10;;;23.30;28.60;;;;;;4974525;28;20037;-76
2021/04/14 12:24:42;;;;;;;0.35;0.13;;;23.40;28.60;;;;;;4976158;28;20022;-76
2021/04/14 12:27:08;;;;;;;0.22;0.22;;;23.40;28.50;;;;;;4976658;28;20089;-74
2021/04/14 12:29:34;;;;;;;2.33;0.30;;;23.40;28.40;;;;;;4978190;28;20030;-74
2021/04/14 12:31:59;;;;;;;0.00;0.00;;;23.40;28.40;;;;;;4976155;28;20033;-75
2021/04/14 12:34:25;;;;;;;0.65;0.45;;;23.40;28.30;;;;;;4976406;28;20022;-74
2021/04/14 12:36:50;;;;;;;0.20;0.00;;;23.40;28.30;;;;;;4959800;28;20576;-74
2021/04/14 12:39:16;;;;;;;0.10;0.10;;;23.40;28.30;;;;;;4976040;28;20410;-74
2021/04/14 12:41:42;;;;;;;0.10;0.10;;;23.50;28.30;;;;;;4959549;28;20129;-77
2021/04/14 12:44:08;;;;;;;0.10;0.10;;;23.50;28.30;;;;;;4970304;28;20070;-76
2021/04/14 12:46:42;;;;;;;0.30;0.30;;;23.50;28.20;;;;;;4992372;28;20038;-76
2021/04/14 12:49:12;;;;;;;0.25;0.13;;;23.50;28.20;;;;;;4992337;28;20022;-74
2021/04/14 12:52:01;;;;;;;0.10;0.10;;;23.40;28.10;;;;;;4999063;28;20029;-75
2021/04/14 12:54:31;;;;;;;0.10;0.10;;;23.50;28.20;;;;;;4911165;29;20037;-74
2021/04/14 12:57:03;;;;;;;2.28;0.95;;;23.50;28.00;;;;;;4910724;29;20044;-74
2021/04/14 12:59:46;;;;;;;0.10;0.10;;;23.50;28.00;;;;;;4910481;29;20045;-74
2021/04/14 13:02:26;;;;;;;0.00;0.00;;;23.50;28.10;;;;;;4910587;29;20137;-74